Mattia Bianco

Chief Scout - Como
3 Apr 2027
Saturday
Process

Personality

Adaptability (4) Ambition (9) Controversy (3) Loyalty (13) Pressure (5) Professionalism (7) Sportsmanship (13) Temperament (16)

Profile

Coaching Style Democratic
License Continental Pro
Determination 11
Man Management 6
Motivating 9
Discipline 10
Job Satisfaction
50%
Fatigue
0%
Role Chief Scout
Wage 62.4K p/w
Contract 14.03.2029

Performance

Behaviour Normal
Training Effectiveness
18%
Player Development
40%
Injury Prevention
60%
Tactical Implementation
20%

Recent Events

Assessed a player now
Attended a recruitment meeting now
Recommended a transfer target now
Attended a recruitment meeting now
Recommended a transfer target now
Recommended a transfer target now
Assessed a player now
Assessed a player 7d ago

Currently Monitoring

218
Player Club Status Ability Confidence Watched Last Observed Latest Vote
Jaydee Canvot Crystal Palace Active 130 / 130 40% 4 02.04.2027 -
Davinchi Getafe Active 112 / 123 40% 2 02.04.2027 -
Tylel Tati Monaco Active 123 / 130 40% 1 02.04.2027 -
Obed Vargas Atlético Madrid Active 129 / 123 40% 2 01.04.2027 -
Andrija Bulatović RC Lens Active 121 / 122 40% 2 01.04.2027 -
Alexis Vossah Toulouse FC Active 119 / 125 40% 1 01.04.2027 -
Enzo Cardozo Almirante Brown Active 104 / 116 40% 3 30.03.2027 -
Alejandro Almaraz Nueva Chicago Active 101 / 104 40% 1 30.03.2027 -
Valentin Atangana Juventus Active 137 / 129 40% 1 30.03.2027 -
Sabil Hansen Randers Active 108 / 115 40% 1 29.03.2027 -
Lucas Jetten Cambuur Active 104 / 108 40% 1 29.03.2027 -
Chris Rigg Sunderland Active 134 / 142 40% 2 27.03.2027 -
Francisco Chissumba Braga Active 124 / 134 40% 3 26.03.2027 -
Jan Ziółkowski Lecce Active 122 / 126 40% 1 26.03.2027 -
Nicolas Sport Recife Active 104 / 106 40% 1 26.03.2027 -
Ronan Kpakio Preston Active 119 / 119 40% 2 25.03.2027 -
Rafik el Arguioui Utrecht Active 110 / 104 40% 2 25.03.2027 -
Eduardo Felicíssimo Sporting CP Active 100 / 125 40% 1 25.03.2027 -
Vinícius Lira Santos Active 118 / 117 40% 1 23.03.2027 -
Alexis Fretes Libertad Active 111 / 123 40% 1 23.03.2027 -
Daniel Banjaqui Benfica Active 116 / 110 40% 1 22.03.2027 -
Kyrylo Dihtiar Metalist Active 97 / 107 40% 1 22.03.2027 -
Saël Kumbedi VfL Wolfsburg Active 134 / 131 40% 3 19.03.2027 -
Freddie Simmonds Brighton Active 106 / 103 40% 1 19.03.2027 -
Jayden Spier Willem II Active 100 / 107 40% 2 18.03.2027 -
Tiago Freitas Benfica Active 111 / 117 40% 1 18.03.2027 -
Mathis Amougou RC Strasbourg Active 107 / 130 40% 1 18.03.2027 -
Axel Tape Bayer Leverkusen Active 125 / 135 40% 3 17.03.2027 -
Camilo Rey Domenech Boca Juniors Active 121 / 125 40% 2 15.03.2027 -
Kai Andrews Coventry City Active 104 / 111 40% 1 15.03.2027 -
Juan Pablo De la Reta Maipú Active 105 / 128 40% 3 14.03.2027 -
Demián Troya Lanús Active 100 / 105 40% 2 14.03.2027 -
Ignacio Perruzzi San Lorenzo Active 121 / 136 40% 1 13.03.2027 -
Gonçalo Oliveira Benfica Active 109 / 105 40% 1 12.03.2027 -
Cemran Dansin Orlando Pirates Active 109 / 124 40% 1 11.03.2027 -
Pablo Aguiar Gimnasia La Plata Active 105 / 114 40% 1 11.03.2027 -
Zé Lucas Corinthians Active 126 / 128 40% 1 09.03.2027 -
Santiago Daniele Chacarita Juniors Active 99 / 107 40% 1 07.03.2027 -
Chema Andrés VfB Stuttgart Active 134 / 146 40% 1 07.03.2027 -
Vincent Burlet Cracovia Active 104 / 87 40% 1 07.03.2027 -
Bahia Corinthians Active 108 / 110 40% 1 06.03.2027 -
Benedetti Palmeiras Active 99 / 120 40% 1 06.03.2027 -
Alex Tóth Bournemouth Active 115 / 120 40% 1 04.03.2027 -
Agustín Medina Lanús Active 110 / 113 40% 1 04.03.2027 -
Jobe Bellingham RB Leipzig Active 139 / 131 40% 1 01.03.2027 -
Thierry Rendall Correia Venezia Active 144 / 132 40% 1 25.01.2027 -
Hugo Rincón Athletic Bilbao Active 140 / 130 40% 1 25.01.2027 -
Alex Luna Instituto Active 128 / 143 40% 1 25.01.2027 -
Håkon Evjen Bodo/Glimt Active 139 / 125 40% 2 19.01.2027 -
Ardon Jashari AC Milan Active 136 / 133 40% 1 19.01.2027 -
Ronaldo Rostov Active 126 / 143 40% 1 19.01.2027 -
Tomáš Suslov Hellas Verona Active 130 / 144 40% 1 18.01.2027 -
Sergey Pinyaev Lokomotiv Moscow Active 130 / 137 40% 1 18.01.2027 -
Emil Breivik Molde Active 121 / 127 40% 1 18.01.2027 -
Jonathan Rowe Bologna Active 131 / 134 40% 3 11.01.2027 -
Giacomo Poluzzi Ravenna Report Ready 109 / 99 72% 1 11.01.2027 -
Rubens Dinamo Moscow Active 134 / 144 40% 1 11.01.2027 -
Domagoj Bradarić Hellas Verona Active 140 / 118 40% 1 11.01.2027 -
Jean-Luc Morin Tours Report Ready 138 / 140 64% 1 01.01.2027 Approve
Mao Hosoya Corinthians Active 134 / 135 67% 1 01.01.2027 Approve
Percy Erasmus SuperSport United Active 122 / 118 40% 10 30.12.2026 -
Lorenzo Insigne Sampdoria Active 129 / 140 40% 2 30.12.2026 -
Mohamed Mallahi Pro Vercelli Active 103 / 95 40% 1 30.12.2026 -
Simone Rabbi Ravenna Active 105 / 106 40% 4 29.12.2026 -
Alberto Cerri Cesena Active 121 / 108 40% 1 29.12.2026 -
Jordan Roberts Stevenage Active 112 / 116 40% 1 29.12.2026 -
Marco Pineda VfB Stuttgart Active 144 / 151 40% 5 28.12.2026 -
Jhon Córdoba Krasnodar Active 137 / 151 40% 2 27.12.2026 -
Duván Zapata Torino Active 143 / 143 40% 1 27.12.2026 -
Matteo Rover Reggiana Active 123 / 125 40% 1 27.12.2026 -
Mykola Haiduchyk Polissia Active 109 / 128 40% 1 27.12.2026 -
Lewis McCann Fleetwood Town Active 98 / 92 40% 1 27.12.2026 -
Manfred Ugalde Spartak Moscow Active 137 / 114 40% 2 26.12.2026 -
David Okereke Cremonese Active 119 / 118 40% 1 25.12.2026 -
Willem Geubbels Lecce Active 128 / 136 40% 1 25.12.2026 -
Camillo Tavernelli Arezzo Active 123 / 106 40% 5 23.12.2026 -
Fernando Forestieri AEL Active 138 / 133 40% 2 23.12.2026 -
John Okoye Ebuka Ittihad Active 115 / 130 40% 2 23.12.2026 -
Giovanni Simeone Torino Active 141 / 131 40% 2 21.12.2026 -
Egas Cacintura Akhmat Grozny Active 123 / 127 40% 1 21.12.2026 -
Peter Itodo Metalist Active 113 / 105 40% 1 20.12.2026 -
Job Ochieng Real Sociedad Active 106 / 98 40% 1 20.12.2026 -
David Romero Parma Active 123 / 129 40% 2 19.12.2026 -
Ismet Sinani Bra Active 84 / 77 40% 1 19.12.2026 -
Brayan León Mamelodi Sundowns Active 127 / 108 40% 2 17.12.2026 -
Stefano Moreo Pisa Active 135 / 121 40% 4 16.12.2026 -
Antoine Griezmann Orlando City Active 163 / 163 40% 11 15.12.2026 -
Johannes Eggestein Austria Wien Active 134 / 130 40% 1 15.12.2026 -
Cedric Gondo Reggiana Active 114 / 124 40% 1 15.12.2026 -
Carles Gil New England Revolution Active 143 / 152 40% 3 13.12.2026 -
Amin Sarr Hellas Verona Active 130 / 136 40% 3 13.12.2026 -
Josh Coburn Millwall Active 122 / 116 40% 3 13.12.2026 -
Assad Al Hamlawi Universitatea Craiova Active 114 / 107 40% 1 13.12.2026 -
Peter Shalulile Mamelodi Sundowns Active 127 / 111 40% 2 12.12.2026 -
Andrea Belotti Cagliari Active 124 / 122 40% 1 12.12.2026 -
Achraf Bencharki Al Ahly Active 127 / 132 40% 5 10.12.2026 -
Nicolás Fernández Belgrano Active 136 / 119 40% 3 10.12.2026 -
Mathias Kvistgaarden Norwich City Active 114 / 132 40% 3 09.12.2026 -
Mario Ravasio Arezzo Active 116 / 104 40% 2 09.12.2026 -
Lorent Tolaj Plymouth Argyle Active 123 / 117 40% 1 09.12.2026 -
Rocco Vata Watford Active 115 / 119 40% 1 08.12.2026 -
Nikolay Komlichenko Lokomotiv Moscow Active 119 / 116 40% 1 08.12.2026 -
Brayan Gil Baltika Active 128 / 109 40% 1 07.12.2026 -
Santiago Pierotti Lecce Active 123 / 121 40% 2 06.12.2026 -
Mikael Ishak Lech Active 124 / 123 40% 1 06.12.2026 -
Boulaye Dia Lazio Active 134 / 140 40% 1 06.12.2026 -
Che Adams Torino Active 132 / 137 40% 3 04.12.2026 -
Karlan Grant West Bromwich Albion Active 121 / 115 40% 2 04.12.2026 -
Denis Bouanga Los Angeles Football Club Active 140 / 154 40% 3 01.12.2026 -
Paxten Aaronson Colorado Rapids Active 135 / 146 40% 1 01.12.2026 -
Andrea Colpani Monza Active 131 / 143 40% 1 01.12.2026 -
Stephan El Shaarawy AS Roma Active 132 / 142 40% 3 30.11.2026 -
Mathias Jørgensen Blackburn Rovers Active 123 / 105 40% 1 30.11.2026 -
Abu Kamara Portsmouth Active 122 / 113 40% 1 30.11.2026 -
Allahyar Sayyadmanesh Lech Active 132 / 106 40% 1 30.11.2026 -
Jacques Siwe Rubin Active 118 / 111 40% 1 29.11.2026 -
Jovon Makama Norwich City Active 125 / 127 40% 1 29.11.2026 -
Iuri Tavares NK Varazdin Active 105 / 120 40% 1 29.11.2026 -
Alan Lescano Argentinos Juniors Active 123 / 142 40% 1 28.11.2026 -
Nicolás Fernández Mercau New York City Active 137 / 139 40% 1 28.11.2026 -
Ross Stewart Southampton Active 129 / 122 40% 3 26.11.2026 -
Lucas Passerini Belgrano Active 121 / 130 40% 2 26.11.2026 -
Jesus Ferreira Seattle Sounders Active 125 / 127 40% 6 25.11.2026 -
Niall Ennis Blackpool Active 109 / 104 40% 1 25.11.2026 -
Ignacio Russo Tigre Active 122 / 120 40% 4 23.11.2026 -
Talles Magno New York City Active 120 / 141 40% 4 22.11.2026 -
Yousef Salech Cardiff City Active 120 / 134 40% 5 22.11.2026 -
Moses Cobnan Krasnodar Active 114 / 113 40% 1 22.11.2026 -
Alex Rolfini Carpi Active 103 / 117 40% 1 21.11.2026 -
Federico Bernardeschi Bologna Active 134 / 139 40% 3 19.11.2026 -
Alexander Díaz Deportivo Riestra Active 113 / 112 40% 3 19.11.2026 -
Octavio Bianchi HNK Vukovar 1991 Active 111 / 101 40% 1 18.11.2026 -
Patrick Cutrone Monza Active 126 / 116 40% 1 18.11.2026 -
Luis Palma Lech Active 123 / 133 40% 1 17.11.2026 -
Vinko Rozić Istra 1961 Active 110 / 111 40% 1 17.11.2026 -
Christian Kouamé Aris Thessaloniki Active 135 / 117 40% 1 17.11.2026 -
Dom Ballard Leyton Orient Active 117 / 138 40% 3 14.11.2026 -
Haris Tabaković Red Bull Salzburg Active 136 / 138 40% 3 14.11.2026 -
Dejan Joveljić Seattle Sounders Active 132 / 135 40% 4 14.11.2026 -
Sam Greenwood Bristol City Active 115 / 114 40% 2 14.11.2026 -
Ramiro Ruiz Rodríguez Atlético Tucumán Active 124 / 131 40% 1 13.11.2026 -
Yoshan Valois Lanús Active 122 / 108 40% 3 12.11.2026 -
Rumarn Burrell Queens Park Rangers Active 120 / 120 40% 2 12.11.2026 -
Oli McBurnie Hull City Active 140 / 140 40% 2 11.11.2026 -
Tadeo Allende Inter Miami CF Active 117 / 116 40% 4 09.11.2026 -
Ştefan Baiaram Universitatea Craiova Active 125 / 139 40% 1 09.11.2026 -
Dion Beljo Dinamo Zagreb Active 131 / 133 40% 1 08.11.2026 -
Nazar Voloshyn Dynamo Kyiv Active 136 / 107 40% 1 08.11.2026 -
George Puşcaş Dinamo Bucharest Active 114 / 102 40% 1 08.11.2026 -
Matija Frigan Parma Active 116 / 119 40% 1 08.11.2026 -
Guilherme Houston Dynamo Active 129 / 128 40% 1 05.11.2026 -
Louis Munteanu DC United Active 128 / 113 40% 1 04.11.2026 -
Konan N'Dri Lecce Active 119 / 115 40% 1 04.11.2026 -
Yorbe Vertessen Red Bull Salzburg Active 122 / 137 40% 1 02.11.2026 -
Indiana Vassilev Philadelphia Union Active 115 / 136 40% 1 31.10.2026 -
Romelu Lukaku Fenerbahce Active 155 / 175 40% 5 29.10.2026 -
Elijah Adebayo Luton Town Active 126 / 114 40% 2 29.10.2026 -
Raúl Jiménez Wolverhampton Active 141 / 151 40% 1 29.10.2026 -
Tomás Molina Argentinos Juniors Active 125 / 134 40% 1 28.10.2026 -
Kévin Denkey FC Cincinnati Active 136 / 112 40% 3 27.10.2026 -
Mohamed Salah Trabzonspor Active 179 / 195 40% 4 27.10.2026 -
Talisca Fenerbahce Active 135 / 131 40% 1 27.10.2026 -
Enzo Copetti Rosario Central Active 125 / 133 40% 2 26.10.2026 -
Morgan Guilavogui Real Salt Lake Active 120 / 124 40% 2 26.10.2026 -
Edwuin Cetré Estudiantes Active 120 / 119 40% 1 25.10.2026 -
Leo Ceara Kashima Antlers Active 143 / 132 40% 5 23.10.2026 -
David Barbona Defensa y Justicia Active 123 / 118 40% 3 22.10.2026 -
Michy Fellaini KV Oostende Active 141 / 124 40% 1 18.10.2026 -
Josh Sargent Toronto FC Active 128 / 146 40% 1 18.10.2026 -
Federico Di Francesco Catanzaro Active 123 / 129 40% 1 18.10.2026 -
Sam Surridge Nashville SC Active 142 / 134 40% 3 17.10.2026 -
Antony Alonso Deportivo Riestra Active 121 / 127 40% 2 16.10.2026 -
Vitinha Genoa Active 139 / 145 40% 1 15.10.2026 -
Timo Werner San Jose Earthquakes Active 125 / 139 40% 2 13.10.2026 -
Michael Barrios Once Caldas Active 120 / 125 40% 1 11.10.2026 -
Frederik Ihler IF Elfsborg Active 110 / 113 40% 1 11.10.2026 -
Patrick Agyemang Derby County Active 129 / 135 40% 1 11.10.2026 -
Cristian Shpendi Cesena Active 130 / 118 40% 1 10.10.2026 Needs More Info
Wessam Abou Ali Columbus Crew Active 122 / 119 40% 1 10.10.2026 -
Álex Arce Independiente Rivadavia Active 122 / 129 40% 2 08.10.2026 -
Alfredo Morelos Atletico Nacional Active 120 / 109 40% 1 07.10.2026 -
Zakaria Aboukhlal Torino Active 141 / 119 40% 1 06.10.2026 -
Luca Orellano Monterrey Active 145 / 131 40% 1 05.10.2026 -
Mousa Meunier KV Oostende Active 133 / 119 40% 2 04.10.2026 -
Nicolò Tresoldi Club Brugge Active 124 / 132 40% 2 30.09.2026 -
Bénie Traoré New York City Active 129 / 126 40% 1 30.09.2026 -
Leonardo Campana New England Revolution Active 123 / 143 40% 1 29.09.2026 -
Diber Cambindo Leon Active 122 / 129 40% 1 29.09.2026 -
Jefry Zapata Once Caldas Active 125 / 123 40% 1 28.09.2026 -
Cesar Corona Veracruz Active 145 / 145 40% 4 27.09.2026 -
Abel Hernández Penarol Active 132 / 129 40% 1 27.09.2026 -
Henry Martín Club America Active 140 / 130 40% 1 23.09.2026 -
Ignacio Ramírez Newell's Old Boys Active 120 / 122 40% 2 22.09.2026 -
Marko Livaja Hajduk Split Active 137 / 129 40% 1 22.09.2026 -
Leonardo Castro Millonarios Active 127 / 119 40% 2 21.09.2026 -
Adriano Bertaccini Anderlecht Active 123 / 126 40% 1 20.09.2026 -
Tomás Chancalay Minnesota United FC Active 122 / 105 40% 1 20.09.2026 -
João Klauss LA Galaxy Active 128 / 109 40% 1 20.09.2026 -
Archie Goodwin Charlotte Football Club Active 102 / 103 40% 1 20.09.2026 -
Daniel Karlsbakk Sarpsborg 08 Active 127 / 121 40% 1 20.09.2026 -
Alexis Vega Toluca Active 145 / 145 40% 2 17.09.2026 -
Brandon Vázquez Austin FC Active 125 / 130 40% 1 16.09.2026 -
Favio Cabral Mitre Active 115 / 106 40% 1 16.09.2026 -
Ibrahim Aliyu Houston Dynamo Active 122 / 100 40% 1 15.09.2026 -
Agustín Venezia Iquique Active 114 / 119 40% 1 11.09.2026 -
Diego Rossi Monterrey Active 140 / 112 40% 1 11.09.2026 -
Francisco Fydriszewski Junior Active 122 / 130 40% 1 07.09.2026 -
Ayoub Jabbari FC Cincinnati Active 106 / 125 40% 2 07.09.2026 -
Marco Miori Alvarado Active 104 / 124 40% 1 07.09.2026 -
Luis Muriel Junior Active 128 / 125 40% 1 05.09.2026 -
Iqraam Rayners Mamelodi Sundowns Active 121 / 111 40% 1 03.09.2026 -
Anthony Lozano Santos Laguna Active 125 / 118 40% 1 02.09.2026 -
Thomas Müller Vancouver Whitecaps Active 154 / 132 40% 1 01.09.2026 -
Martín Ojeda Orlando City Active 136 / 145 40% 1 01.09.2026 -
Abdoulaye Ndiaye Parma Active 115 / 130 72% 1 03.08.2026 Approve
Robin Lod Chicago Fire Active 116 / 121 40% 1 02.08.2026 -
Luca Langoni New England Revolution Active 124 / 131 40% 1 02.08.2026 -
Gianluca Scamacca Atalanta Active 137 / 157 40% 1 01.08.2026 -